createdAt,value
2023-02-15T00:00:23.095Z,79.70
2023-02-15T00:01:26.618Z,79.70
2023-02-15T00:02:30.142Z,79.70
2023-02-15T00:03:32.556Z,79.70
2023-02-15T00:04:48.297Z,79.70
2023-02-15T00:05:52.308Z,79.70
2023-02-15T00:06:55.783Z,79.70
2023-02-15T00:07:58.151Z,79.70
2023-02-15T00:09:01.946Z,79.80
2023-02-15T00:10:06.102Z,79.80
2023-02-15T00:11:11.367Z,79.80
2023-02-15T00:12:14.104Z,79.80
2023-02-15T00:13:17.646Z,79.80
2023-02-15T00:14:22.807Z,79.80
2023-02-15T00:15:28.457Z,79.80
2023-02-15T00:16:31.114Z,79.90
2023-02-15T00:17:34.678Z,79.90
2023-02-15T00:18:37.408Z,79.90
2023-02-15T00:19:41.144Z,79.90
2023-02-15T00:20:43.692Z,79.90
2023-02-15T00:21:49.645Z,79.90
2023-02-15T00:22:52.206Z,79.90
2023-02-15T00:23:55.589Z,79.90
2023-02-15T00:24:59.003Z,80.00
2023-02-15T00:26:06.975Z,80.00
2023-02-15T00:27:11.189Z,80.00
2023-02-15T00:28:15.154Z,80.00
2023-02-15T00:29:21.408Z,80.10
2023-02-15T00:30:24.988Z,80.10
2023-02-15T00:31:29.411Z,80.20
2023-02-15T00:32:33.339Z,80.30
2023-02-15T00:33:36.529Z,80.30
2023-02-15T00:34:40.212Z,80.40
2023-02-15T00:35:42.724Z,80.40
2023-02-15T00:36:48.393Z,80.40
2023-02-15T00:37:50.904Z,80.40
2023-02-15T00:38:54.365Z,80.40
2023-02-15T00:39:56.879Z,80.30
2023-02-15T00:41:02.721Z,80.40
2023-02-15T00:42:05.537Z,80.40
2023-02-15T00:43:08.933Z,80.40
2023-02-15T00:44:11.820Z,80.40
2023-02-15T00:45:17.362Z,80.40
2023-02-15T00:46:21.495Z,80.40
2023-02-15T00:47:26.249Z,80.40
2023-02-15T00:48:28.952Z,80.40
2023-02-15T00:49:32.554Z,80.40
2023-02-15T00:50:35.195Z,80.50
2023-02-15T00:51:38.882Z,80.50
2023-02-15T00:52:45.934Z,80.50
2023-02-15T00:53:49.829Z,80.60
2023-02-15T00:54:52.531Z,80.60
2023-02-15T00:55:56.500Z,80.60
2023-02-15T00:57:00.904Z,80.70
2023-02-15T00:58:05.891Z,80.70
2023-02-15T00:59:09.921Z,80.70
2023-02-15T01:00:15.408Z,80.80
2023-02-15T01:01:21.665Z,80.80
2023-02-15T01:02:25.014Z,80.80
2023-02-15T01:03:27.616Z,80.80
2023-02-15T01:04:31.042Z,80.80
2023-02-15T01:05:33.676Z,80.80
2023-02-15T01:06:37.213Z,80.90
2023-02-15T01:07:39.750Z,80.90
2023-02-15T01:08:45.204Z,80.90
2023-02-15T01:09:47.658Z,80.90
2023-02-15T01:10:51.120Z,80.90
2023-02-15T01:11:53.541Z,80.90
2023-02-15T01:12:58.562Z,80.90
2023-02-15T01:14:01.133Z,80.90
2023-02-15T01:15:04.959Z,80.90
2023-02-15T01:16:07.972Z,80.90
2023-02-15T01:17:11.402Z,81.00
2023-02-15T01:18:14.180Z,81.00
2023-02-15T01:19:18.781Z,81.10
2023-02-15T01:20:23.140Z,81.10
2023-02-15T01:21:28.064Z,81.10
2023-02-15T01:22:33.046Z,81.10
2023-02-15T01:23:36.624Z,81.10
2023-02-15T01:24:41.421Z,81.10
2023-02-15T01:25:44.218Z,81.10
2023-02-15T01:26:47.763Z,81.10
2023-02-15T01:27:50.268Z,81.20
2023-02-15T01:28:54.275Z,81.20
2023-02-15T01:29:56.667Z,81.20
2023-02-15T01:31:00.529Z,81.20
2023-02-15T01:32:03.597Z,81.20
2023-02-15T01:33:07.120Z,81.30
2023-02-15T01:34:10.635Z,81.30
2023-02-15T01:35:17.003Z,81.30
2023-02-15T01:36:20.601Z,81.30
2023-02-15T01:37:25.921Z,81.40
2023-02-15T01:38:29.623Z,81.40
2023-02-15T01:39:33.104Z,81.40
2023-02-15T01:40:36.841Z,81.50
2023-02-15T01:41:40.264Z,81.50
2023-02-15T01:42:45.825Z,81.50
2023-02-15T01:43:52.386Z,81.60
2023-02-15T01:44:57.261Z,81.60
2023-02-15T01:46:01.099Z,81.60
2023-02-15T01:47:09.152Z,81.70
2023-02-15T01:48:28.299Z,81.70
2023-02-15T01:49:31.680Z,81.80
2023-02-15T01:50:38.535Z,81.80
2023-02-15T01:51:44.453Z,81.80
2023-02-15T01:52:53.475Z,81.80
2023-02-15T01:54:00.720Z,81.80
2023-02-15T01:55:07.165Z,81.80
2023-02-15T01:56:16.025Z,81.90
2023-02-15T01:57:25.788Z,81.90
2023-02-15T01:58:31.395Z,82.00
2023-02-15T01:59:37.214Z,82.00
2023-02-15T02:00:40.924Z,82.10
2023-02-15T02:01:43.544Z,82.10
2023-02-15T02:02:51.582Z,82.20
2023-02-15T02:04:03.431Z,82.20
2023-02-15T02:05:09.849Z,82.30
2023-02-15T02:06:12.901Z,82.40
2023-02-15T02:07:19.355Z,82.50
2023-02-15T02:08:21.807Z,82.60
2023-02-15T02:09:25.702Z,82.60
2023-02-15T02:10:29.509Z,82.80
2023-02-15T02:11:36.859Z,82.80
2023-02-15T02:12:42.203Z,82.80
2023-02-15T02:13:47.284Z,82.80
2023-02-15T02:14:51.099Z,82.80
2023-02-15T02:16:03.060Z,82.90
2023-02-15T02:17:15.418Z,82.90
2023-02-15T02:18:35.772Z,82.90
2023-02-15T02:20:36.093Z,83.00
2023-02-15T02:22:22.380Z,83.10
2023-02-15T02:23:40.134Z,83.10
2023-02-15T02:25:13.523Z,83.20
2023-02-15T02:27:07.086Z,83.30
2023-02-15T02:28:33.322Z,83.30
2023-02-15T02:30:27.957Z,83.40
2023-02-15T02:32:05.793Z,83.40
2023-02-15T02:33:30.246Z,83.40
2023-02-15T02:34:39.737Z,83.30
2023-02-15T02:35:56.290Z,83.30
2023-02-15T02:37:09.328Z,83.30
2023-02-15T02:38:23.978Z,83.30
2023-02-15T02:39:51.403Z,83.30
2023-02-15T02:41:08.188Z,83.30
2023-02-15T02:42:19.081Z,83.30
2023-02-15T02:43:30.308Z,83.30
2023-02-15T02:44:45.073Z,83.30
2023-02-15T02:45:54.525Z,83.30
2023-02-15T02:47:05.394Z,83.30
2023-02-15T02:48:15.006Z,83.30
2023-02-15T02:49:29.526Z,83.20
2023-02-15T02:50:32.449Z,83.20
2023-02-15T02:51:36.044Z,83.20
2023-02-15T02:52:43.079Z,83.30
2023-02-15T02:53:46.637Z,83.30
2023-02-15T02:54:49.195Z,83.30
2023-02-15T02:55:57.682Z,83.20
2023-02-15T02:57:05.282Z,83.20
2023-02-15T02:58:16.409Z,83.20
2023-02-15T02:59:24.579Z,83.20
2023-02-15T03:00:32.266Z,83.20
2023-02-15T03:01:40.432Z,83.30
2023-02-15T03:02:50.004Z,83.40
2023-02-15T03:03:56.636Z,83.60
2023-02-15T03:05:09.160Z,83.80
2023-02-15T03:06:19.093Z,84.00
2023-02-15T03:07:26.999Z,84.20
2023-02-15T03:08:35.306Z,84.40
2023-02-15T03:09:43.744Z,84.50
2023-02-15T03:10:51.012Z,84.50
2023-02-15T03:11:55.401Z,84.50
2023-02-15T03:12:58.637Z,84.50
2023-02-15T03:14:02.984Z,84.50
2023-02-15T03:15:11.406Z,84.50
2023-02-15T03:16:28.478Z,84.50
2023-02-15T03:17:34.723Z,84.60
2023-02-15T03:18:44.554Z,84.80
2023-02-15T03:19:49.410Z,84.80
2023-02-15T03:20:57.548Z,84.80
2023-02-15T03:22:10.358Z,84.70
2023-02-15T03:23:20.270Z,84.60
2023-02-15T03:24:27.400Z,84.60
2023-02-15T03:25:37.379Z,84.50
2023-02-15T03:26:44.725Z,84.40
2023-02-15T03:27:55.670Z,84.40
2023-02-15T03:29:01.770Z,84.20
2023-02-15T03:30:10.091Z,84.20
2023-02-15T03:31:16.130Z,84.10
2023-02-15T03:32:19.836Z,84.10
2023-02-15T03:33:25.372Z,84.20
2023-02-15T03:34:28.651Z,84.20
2023-02-15T03:35:41.223Z,84.20
2023-02-15T03:36:49.100Z,84.20
2023-02-15T03:38:00.123Z,84.20
2023-02-15T03:39:14.515Z,84.20
2023-02-15T03:40:46.685Z,84.10
2023-02-15T03:41:59.461Z,84.20
2023-02-15T03:43:10.150Z,84.20
2023-02-15T03:44:20.742Z,84.20
2023-02-15T03:45:28.863Z,84.20
2023-02-15T03:46:39.359Z,84.20
2023-02-15T03:47:46.328Z,84.20
2023-02-15T03:48:54.873Z,84.20
2023-02-15T03:50:03.896Z,84.30
2023-02-15T03:51:28.330Z,84.30
2023-02-15T03:52:36.192Z,84.40
2023-02-15T03:53:40.320Z,84.50
2023-02-15T03:54:46.785Z,84.50
2023-02-15T03:55:49.683Z,84.50
2023-02-15T03:57:14.259Z,84.50
2023-02-15T03:58:35.360Z,84.60
2023-02-15T03:59:56.340Z,84.60
2023-02-15T04:01:23.727Z,84.60
2023-02-15T04:02:36.204Z,84.60
2023-02-15T04:03:42.353Z,84.60
2023-02-15T04:04:49.963Z,84.60
2023-02-15T04:05:52.652Z,84.60
2023-02-15T04:06:56.223Z,84.60
2023-02-15T04:08:00.167Z,84.60
2023-02-15T04:09:21.096Z,84.60
2023-02-15T04:10:42.049Z,84.60
2023-02-15T04:11:46.396Z,84.60
2023-02-15T04:12:49.805Z,84.60
2023-02-15T04:13:57.576Z,84.60
2023-02-15T04:15:18.550Z,84.60
2023-02-15T04:16:21.006Z,84.60
2023-02-15T04:17:24.464Z,84.60
2023-02-15T04:18:45.407Z,84.60
2023-02-15T04:20:06.500Z,84.60
2023-02-15T04:21:27.506Z,84.60
2023-02-15T04:22:48.557Z,84.60
2023-02-15T04:24:11.164Z,84.60
2023-02-15T04:25:14.649Z,84.60
2023-02-15T04:26:17.549Z,84.80
2023-02-15T04:27:21.013Z,85.00
2023-02-15T04:28:23.577Z,85.20
2023-02-15T04:29:28.955Z,85.40
2023-02-15T04:30:32.434Z,85.50
2023-02-15T04:31:35.991Z,85.70
2023-02-15T04:32:39.439Z,85.90
2023-02-15T04:33:44.750Z,86.00
2023-02-15T04:34:47.271Z,86.20
2023-02-15T04:35:50.761Z,86.40
2023-02-15T04:36:53.447Z,86.50
2023-02-15T04:37:57.299Z,86.70
2023-02-15T04:39:00.989Z,87.00
2023-02-15T04:40:04.979Z,87.20
2023-02-15T04:41:07.465Z,87.30
2023-02-15T04:42:10.887Z,87.50
2023-02-15T04:43:13.207Z,87.70
2023-02-15T04:44:16.851Z,87.80
2023-02-15T04:45:19.600Z,87.80
2023-02-15T04:46:23.226Z,87.90
2023-02-15T04:47:25.970Z,87.90
2023-02-15T04:48:29.458Z,88.10
2023-02-15T04:49:31.905Z,88.20
2023-02-15T04:50:35.318Z,88.30
2023-02-15T04:51:38.347Z,88.50
2023-02-15T04:52:41.781Z,88.50
2023-02-15T04:53:44.517Z,88.50
2023-02-15T04:54:49.362Z,88.50
2023-02-15T04:55:51.935Z,88.40
2023-02-15T04:56:55.410Z,88.40
2023-02-15T04:57:58.323Z,88.40
2023-02-15T04:59:01.901Z,88.50
2023-02-15T05:00:05.169Z,88.50
2023-02-15T05:01:09.221Z,88.80
2023-02-15T05:02:11.833Z,88.80
2023-02-15T05:03:15.230Z,88.90
2023-02-15T05:04:17.790Z,89.00
2023-02-15T05:05:21.693Z,89.10
2023-02-15T05:06:24.178Z,89.20
2023-02-15T05:07:27.603Z,89.20
2023-02-15T05:08:30.110Z,89.30
2023-02-15T05:09:33.553Z,89.40
2023-02-15T05:10:37.476Z,89.70
2023-02-15T05:11:40.813Z,89.90
2023-02-15T05:12:43.340Z,89.90
2023-02-15T05:13:46.743Z,90.10
2023-02-15T05:14:49.182Z,90.30
2023-02-15T05:15:54.543Z,90.30
2023-02-15T05:16:57.650Z,90.30
2023-02-15T05:18:02.460Z,90.20
2023-02-15T05:19:05.265Z,90.30
2023-02-15T05:20:10.030Z,90.40
2023-02-15T05:21:12.487Z,90.40
2023-02-15T05:22:16.053Z,90.30
2023-02-15T05:23:18.500Z,90.50
2023-02-15T05:24:39.496Z,90.40
2023-02-15T05:26:07.412Z,90.30
2023-02-15T05:27:31.373Z,90.40
2023-02-15T05:28:35.385Z,90.50
2023-02-15T05:29:37.841Z,90.50
2023-02-15T05:30:41.911Z,90.50
2023-02-15T05:31:48.245Z,90.60
2023-02-15T05:32:51.962Z,90.50
2023-02-15T05:33:54.511Z,90.50
2023-02-15T05:34:58.409Z,90.60
2023-02-15T05:36:02.271Z,90.60
2023-02-15T05:37:06.105Z,90.60
2023-02-15T05:38:08.855Z,90.70
2023-02-15T05:39:12.314Z,90.70
2023-02-15T05:40:14.860Z,90.90
2023-02-15T05:41:19.991Z,90.90
2023-02-15T05:42:22.388Z,90.80
2023-02-15T05:43:26.217Z,90.90
2023-02-15T05:44:28.634Z,91.00
2023-02-15T05:45:32.210Z,91.10
2023-02-15T05:46:34.831Z,91.10
2023-02-15T05:47:38.377Z,91.00
2023-02-15T05:48:40.799Z,91.10
2023-02-15T05:49:44.418Z,91.10
2023-02-15T05:50:47.346Z,91.00
2023-02-15T05:51:50.952Z,91.00
2023-02-15T05:52:53.804Z,91.10
2023-02-15T05:53:57.272Z,91.10
2023-02-15T05:55:01.195Z,91.20
2023-02-15T05:56:06.022Z,91.10
2023-02-15T05:57:09.875Z,91.10
2023-02-15T05:58:13.347Z,91.10
2023-02-15T05:59:15.980Z,91.30
2023-02-15T06:00:20.424Z,91.50
2023-02-15T06:01:24.063Z,91.40
2023-02-15T06:02:27.917Z,91.40
2023-02-15T06:03:30.390Z,91.40
2023-02-15T06:04:33.894Z,91.40
2023-02-15T06:05:36.267Z,91.40
2023-02-15T06:06:39.949Z,91.30
2023-02-15T06:07:45.383Z,91.40
2023-02-15T06:08:48.848Z,91.40
2023-02-15T06:09:51.388Z,91.40
2023-02-15T06:10:54.719Z,91.40
2023-02-15T06:11:57.407Z,91.40
2023-02-15T06:13:02.267Z,91.30
2023-02-15T06:14:04.847Z,91.30
2023-02-15T06:15:09.645Z,91.30
2023-02-15T06:16:12.727Z,91.10
2023-02-15T06:17:17.565Z,91.10
2023-02-15T06:18:20.238Z,91.00
2023-02-15T06:19:25.300Z,91.00
2023-02-15T06:20:28.071Z,91.00
2023-02-15T06:21:32.281Z,91.00
2023-02-15T06:22:35.031Z,91.00
2023-02-15T06:23:39.020Z,91.00
2023-02-15T06:24:44.010Z,91.00
2023-02-15T06:25:47.413Z,91.10
2023-02-15T06:26:51.203Z,91.10
2023-02-15T06:27:54.790Z,91.10
2023-02-15T06:29:00.517Z,91.10
2023-02-15T06:30:06.882Z,91.10
2023-02-15T06:31:11.353Z,91.10
2023-02-15T06:32:15.709Z,91.20
2023-02-15T06:33:19.154Z,91.20
2023-02-15T06:34:22.730Z,91.20
2023-02-15T06:35:25.664Z,91.10
2023-02-15T06:36:29.549Z,91.00
2023-02-15T06:37:32.964Z,91.20
2023-02-15T06:38:35.437Z,91.30
2023-02-15T06:39:38.892Z,91.30
2023-02-15T06:40:41.352Z,91.30
2023-02-15T06:41:44.841Z,91.40
2023-02-15T06:42:48.436Z,91.50
2023-02-15T06:43:52.088Z,91.40
2023-02-15T06:44:55.841Z,91.50
2023-02-15T06:46:00.764Z,91.70
2023-02-15T06:47:05.113Z,91.60
2023-02-15T06:48:07.961Z,91.60
2023-02-15T06:49:11.727Z,91.70
2023-02-15T06:50:17.336Z,91.60
2023-02-15T06:51:22.118Z,91.60
2023-02-15T06:52:24.759Z,91.50
2023-02-15T06:53:30.536Z,91.50
2023-02-15T06:54:33.815Z,91.50
2023-02-15T06:55:37.462Z,91.60
2023-02-15T06:56:39.931Z,91.50
2023-02-15T06:57:43.349Z,91.50
2023-02-15T06:58:46.952Z,91.50
2023-02-15T06:59:50.344Z,91.60
2023-02-15T07:00:54.528Z,91.70
2023-02-15T07:01:58.089Z,91.70
2023-02-15T07:03:01.104Z,91.70
2023-02-15T07:04:04.813Z,91.70
2023-02-15T07:05:07.574Z,91.70
2023-02-15T07:06:11.683Z,91.60
2023-02-15T07:07:15.066Z,91.60
2023-02-15T07:08:20.997Z,91.50
2023-02-15T07:09:24.761Z,91.60
2023-02-15T07:10:28.717Z,91.70
2023-02-15T07:11:50.100Z,91.70
2023-02-15T07:12:52.863Z,91.70
2023-02-15T07:13:56.441Z,91.70
2023-02-15T07:15:00.193Z,91.70
2023-02-15T07:16:05.703Z,91.70
2023-02-15T07:17:27.466Z,91.70
2023-02-15T07:18:32.764Z,91.60
2023-02-15T07:19:36.162Z,91.70
2023-02-15T07:20:41.540Z,91.50
2023-02-15T07:21:45.081Z,91.40
2023-02-15T07:22:49.289Z,91.50
2023-02-15T07:23:52.741Z,91.50
2023-02-15T07:24:55.786Z,91.50
2023-02-15T07:26:00.022Z,91.50
2023-02-15T07:27:02.800Z,91.60
2023-02-15T07:28:07.904Z,91.60
2023-02-15T07:29:10.342Z,91.50
2023-02-15T07:30:18.274Z,91.50
2023-02-15T07:31:23.198Z,91.40
2023-02-15T07:32:30.518Z,91.20
2023-02-15T07:33:34.154Z,91.30
2023-02-15T07:34:36.796Z,91.20
2023-02-15T07:35:40.225Z,91.10
2023-02-15T07:36:45.316Z,91.10
2023-02-15T07:37:48.910Z,91.10
2023-02-15T07:38:52.357Z,90.60
2023-02-15T07:39:56.132Z,90.80
2023-02-15T07:40:59.812Z,90.80
2023-02-15T07:42:03.189Z,90.60
2023-02-15T07:43:06.937Z,90.30
2023-02-15T07:44:14.681Z,90.00
2023-02-15T07:45:18.315Z,89.60
2023-02-15T07:46:23.456Z,89.20
2023-02-15T07:47:27.907Z,88.80
2023-02-15T07:48:31.557Z,88.50
2023-02-15T07:49:35.221Z,88.10
2023-02-15T07:50:37.748Z,87.80
2023-02-15T07:51:42.161Z,87.40
2023-02-15T07:52:45.800Z,87.10
2023-02-15T07:53:49.267Z,86.60
2023-02-15T07:54:52.718Z,86.30
2023-02-15T07:55:57.462Z,85.90
2023-02-15T07:57:02.561Z,85.50
2023-02-15T07:58:04.975Z,85.30
2023-02-15T07:59:09.346Z,85.00
2023-02-15T08:00:17.867Z,84.80
2023-02-15T08:01:26.498Z,84.30
2023-02-15T08:08:31.878Z,81.80
2023-02-15T08:09:35.595Z,81.30
2023-02-15T08:10:56.650Z,80.70
2023-02-15T08:12:00.546Z,80.40
2023-02-15T08:13:03.216Z,80.10
2023-02-15T08:14:10.547Z,79.70
2023-02-15T08:15:14.296Z,78.80
2023-02-15T08:16:17.094Z,78.50
2023-02-15T08:17:22.243Z,77.90
2023-02-15T08:18:25.238Z,77.30
2023-02-15T08:19:31.596Z,76.40
2023-02-15T08:20:34.301Z,75.50
2023-02-15T08:21:42.169Z,74.80
2023-02-15T08:22:45.183Z,74.00
2023-02-15T08:23:49.203Z,73.00
2023-02-15T08:24:52.867Z,72.20
2023-02-15T08:25:55.605Z,71.50
2023-02-15T08:26:59.558Z,71.10
2023-02-15T08:28:02.190Z,70.40
2023-02-15T08:29:06.285Z,70.10
2023-02-15T08:30:11.471Z,70.00
2023-02-15T08:31:15.204Z,69.60
2023-02-15T08:32:19.487Z,69.10
2023-02-15T08:33:23.664Z,69.30
2023-02-15T08:34:28.202Z,68.60
2023-02-15T08:35:30.959Z,67.80
2023-02-15T08:36:34.931Z,68.10
2023-02-15T08:37:37.580Z,67.20
2023-02-15T08:38:41.956Z,66.90
2023-02-15T08:39:46.975Z,66.80
2023-02-15T08:40:49.524Z,66.80
2023-02-15T08:41:53.234Z,66.70
2023-02-15T08:42:56.155Z,66.30
2023-02-15T08:44:02.253Z,66.00
2023-02-15T08:45:06.917Z,66.10
2023-02-15T08:46:13.891Z,65.90
2023-02-15T08:47:17.793Z,66.20
2023-02-15T08:48:20.645Z,65.70
2023-02-15T08:49:25.845Z,65.90
2023-02-15T08:50:28.778Z,65.80
2023-02-15T08:51:34.360Z,65.10
2023-02-15T08:52:37.151Z,65.10
2023-02-15T08:53:41.809Z,65.10
2023-02-15T08:54:45.754Z,64.80
2023-02-15T08:55:52.298Z,64.70
2023-02-15T08:56:56.199Z,64.50
2023-02-15T08:57:59.077Z,64.50
2023-02-15T08:59:03.577Z,64.60
2023-02-15T09:00:08.502Z,64.60
2023-02-15T09:01:14.250Z,64.50
2023-02-15T09:02:18.051Z,64.70
2023-02-15T09:03:21.030Z,64.40
2023-02-15T09:04:26.250Z,64.30
2023-02-15T09:05:29.183Z,64.30
2023-02-15T09:06:33.443Z,64.40
2023-02-15T09:07:36.038Z,64.40
2023-02-15T09:08:40.426Z,64.60
2023-02-15T09:09:44.082Z,64.10
2023-02-15T09:10:48.256Z,64.10
2023-02-15T09:11:59.050Z,63.90
2023-02-15T09:13:02.208Z,63.80
2023-02-15T09:14:09.193Z,63.90
2023-02-15T09:15:12.016Z,63.90
2023-02-15T09:16:18.001Z,63.90
2023-02-15T09:17:21.662Z,63.60
2023-02-15T09:18:24.340Z,63.50
2023-02-15T09:19:29.770Z,63.60
2023-02-15T09:20:33.515Z,63.40
2023-02-15T09:21:40.096Z,63.10
2023-02-15T09:22:44.081Z,62.60
2023-02-15T09:23:50.512Z,62.50
2023-02-15T09:24:54.145Z,62.20
2023-02-15T09:25:56.707Z,62.40
2023-02-15T09:27:00.361Z,62.50
2023-02-15T09:28:03.455Z,62.30
2023-02-15T09:29:07.239Z,62.60
2023-02-15T09:30:12.327Z,62.50
2023-02-15T09:31:19.152Z,61.90
2023-02-15T09:32:23.171Z,62.00
2023-02-15T09:33:27.244Z,62.00
2023-02-15T09:34:34.165Z,62.00
2023-02-15T09:35:38.822Z,62.20
2023-02-15T09:36:42.509Z,61.70
2023-02-15T09:37:46.368Z,61.90
2023-02-15T09:38:55.938Z,61.60
2023-02-15T09:40:00.362Z,61.70
2023-02-15T09:41:26.689Z,61.40
2023-02-15T09:43:22.604Z,60.90
2023-02-15T09:44:41.668Z,60.80
2023-02-15T09:46:14.629Z,60.70
2023-02-15T09:47:40.765Z,60.50
2023-02-15T09:48:46.917Z,59.50
2023-02-15T09:50:03.439Z,58.80
2023-02-15T09:51:38.070Z,57.60
2023-02-15T09:53:03.013Z,58.20
2023-02-15T09:54:23.325Z,57.90
2023-02-15T09:55:52.944Z,58.10
2023-02-15T09:57:03.157Z,58.20
2023-02-15T09:58:16.938Z,57.80
2023-02-15T09:59:33.421Z,59.60
2023-02-15T10:00:50.524Z,57.30
2023-02-15T10:02:08.925Z,56.30
2023-02-15T10:03:38.480Z,56.40
2023-02-15T10:05:01.659Z,56.50
2023-02-15T10:06:40.169Z,56.70
2023-02-15T10:08:16.651Z,55.70
2023-02-15T10:09:38.842Z,55.50
2023-02-15T10:10:55.809Z,55.80
2023-02-15T10:12:31.758Z,55.40
2023-02-15T10:13:43.679Z,55.60
2023-02-15T10:15:25.338Z,55.50
2023-02-15T10:16:39.974Z,55.80
2023-02-15T10:18:03.774Z,55.70
2023-02-15T10:19:18.411Z,55.40
2023-02-15T10:20:30.089Z,55.30
2023-02-15T10:21:53.192Z,55.40
2023-02-15T10:23:16.257Z,55.30
2023-02-15T10:25:01.107Z,54.30
2023-02-15T10:26:15.126Z,53.80
2023-02-15T10:27:23.493Z,54.00
2023-02-15T10:28:45.138Z,53.20
2023-02-15T10:30:04.203Z,53.60
2023-02-15T10:31:22.536Z,53.10
2023-02-15T10:32:30.316Z,53.10
2023-02-15T10:33:41.622Z,52.80
2023-02-15T10:34:54.926Z,53.80
2023-02-15T10:36:14.416Z,53.30
2023-02-15T10:37:49.693Z,52.70
2023-02-15T10:39:02.273Z,52.50
2023-02-15T10:40:16.351Z,51.70
2023-02-15T10:41:35.536Z,51.70
2023-02-15T10:43:01.002Z,52.70
2023-02-15T10:44:31.105Z,51.70
2023-02-15T10:45:52.350Z,52.30
2023-02-15T10:47:33.515Z,52.80
2023-02-15T10:49:01.672Z,53.10
2023-02-15T10:50:27.528Z,52.80
2023-02-15T10:51:46.377Z,52.90
2023-02-15T10:53:15.484Z,52.90
2023-02-15T10:57:45.213Z,53.40
2023-02-15T10:59:09.633Z,53.90
2023-02-15T11:00:24.869Z,52.90
2023-02-15T11:01:35.931Z,53.30
2023-02-15T11:03:11.925Z,53.40
2023-02-15T11:04:52.159Z,53.40
2023-02-15T11:06:06.181Z,52.40
2023-02-15T11:07:20.552Z,53.10
2023-02-15T11:08:26.796Z,53.60
2023-02-15T11:09:42.923Z,53.40
2023-02-15T11:10:52.695Z,53.70
2023-02-15T11:12:00.676Z,54.10
2023-02-15T11:13:13.191Z,54.10
2023-02-15T11:14:28.859Z,54.60
2023-02-15T11:15:38.273Z,54.50
2023-02-15T11:16:46.803Z,54.70
2023-02-15T11:17:58.435Z,55.30
2023-02-15T11:19:07.567Z,54.80
2023-02-15T11:20:20.051Z,55.40
2023-02-15T11:21:28.305Z,55.30
2023-02-15T11:22:35.745Z,55.80
2023-02-15T11:23:45.848Z,56.20
2023-02-15T11:24:50.382Z,56.60
2023-02-15T11:26:00.094Z,56.70
2023-02-15T11:27:07.143Z,56.00
2023-02-15T11:28:21.646Z,56.30
2023-02-15T11:29:33.918Z,56.10
2023-02-15T11:30:45.585Z,56.50
2023-02-15T11:31:56.093Z,56.70
2023-02-15T11:33:04.662Z,56.60
2023-02-15T11:34:21.156Z,56.30
2023-02-15T11:35:31.854Z,56.70
2023-02-15T11:36:39.936Z,56.30
2023-02-15T11:37:52.538Z,55.80
2023-02-15T11:39:08.647Z,54.50
2023-02-15T11:40:23.240Z,54.50
2023-02-15T11:41:33.909Z,53.50
2023-02-15T11:42:37.407Z,54.10
2023-02-15T11:43:46.235Z,54.40
2023-02-15T11:44:59.234Z,54.40
2023-02-15T11:46:03.145Z,55.00
2023-02-15T11:47:12.809Z,55.60
2023-02-15T11:48:16.991Z,56.00
2023-02-15T11:49:29.551Z,55.80
2023-02-15T11:50:35.054Z,55.80
2023-02-15T11:51:39.283Z,55.80
2023-02-15T11:52:43.436Z,55.60
2023-02-15T11:53:48.754Z,55.60
2023-02-15T11:54:53.738Z,56.60
2023-02-15T11:55:58.148Z,55.80
2023-02-15T11:57:14.208Z,55.90
2023-02-15T11:58:32.077Z,56.00
2023-02-15T11:59:38.840Z,56.10
2023-02-15T12:00:45.008Z,56.30
2023-02-15T12:01:49.300Z,56.20
2023-02-15T12:02:56.124Z,56.20
2023-02-15T12:04:06.449Z,56.60
2023-02-15T12:05:17.932Z,56.10
2023-02-15T12:06:27.681Z,55.90
2023-02-15T12:07:37.952Z,55.80
2023-02-15T12:08:49.969Z,56.10
2023-02-15T12:10:01.662Z,55.90
2023-02-15T12:11:13.318Z,56.10
2023-02-15T12:12:26.505Z,56.10
2023-02-15T12:13:29.224Z,56.40
2023-02-15T12:14:50.544Z,56.70
2023-02-15T12:15:58.371Z,56.60
2023-02-15T12:17:01.702Z,57.00
2023-02-15T12:18:07.094Z,57.00
2023-02-15T12:19:33.260Z,57.60
2023-02-15T12:20:45.353Z,57.20
2023-02-15T12:21:54.777Z,57.50
2023-02-15T12:23:03.970Z,57.00
2023-02-15T12:24:20.351Z,57.60
2023-02-15T12:25:27.460Z,57.20
2023-02-15T12:26:34.293Z,57.80
2023-02-15T12:27:45.297Z,58.10
2023-02-15T12:28:53.101Z,58.40
2023-02-15T12:30:02.122Z,58.10
2023-02-15T12:31:10.221Z,58.40
2023-02-15T12:32:21.169Z,58.50
2023-02-15T12:33:32.513Z,57.80
2023-02-15T12:34:42.325Z,57.90
2023-02-15T12:35:50.362Z,58.40
2023-02-15T12:37:00.114Z,57.70
2023-02-15T12:38:21.783Z,57.50
2023-02-15T12:39:29.748Z,57.10
2023-02-15T12:40:35.056Z,57.70
2023-02-15T12:41:40.962Z,57.70
2023-02-15T12:42:48.809Z,57.50
2023-02-15T12:44:14.360Z,57.60
2023-02-15T12:45:29.406Z,57.90
2023-02-15T12:46:38.097Z,57.90
2023-02-15T12:47:41.866Z,58.50
2023-02-15T12:48:44.681Z,57.90
2023-02-15T12:50:17.797Z,57.40
2023-02-15T12:51:21.798Z,57.20
2023-02-15T12:52:27.639Z,57.20
2023-02-15T12:53:34.936Z,56.50
2023-02-15T12:54:41.916Z,56.50
2023-02-15T12:55:54.983Z,56.50
2023-02-15T12:56:59.557Z,56.70
2023-02-15T12:58:18.367Z,56.20
2023-02-15T12:59:23.444Z,56.10
2023-02-15T13:00:32.966Z,56.20
2023-02-15T13:01:37.276Z,55.80
2023-02-15T13:02:48.589Z,55.90
2023-02-15T13:04:02.456Z,55.90
2023-02-15T13:05:22.125Z,56.20
2023-02-15T13:06:26.326Z,56.80
2023-02-15T13:07:40.463Z,56.40
2023-02-15T13:08:53.020Z,56.40
2023-02-15T13:09:58.204Z,56.70
2023-02-15T13:11:06.948Z,56.60
2023-02-15T13:12:22.909Z,56.80
2023-02-15T13:13:29.904Z,56.90
2023-02-15T13:14:34.744Z,57.20
2023-02-15T13:15:43.372Z,57.50
2023-02-15T13:16:50.154Z,57.50
2023-02-15T13:17:54.178Z,57.30
2023-02-15T13:18:59.189Z,57.40
2023-02-15T13:20:18.990Z,57.60
2023-02-15T13:21:27.867Z,57.90
2023-02-15T13:22:40.362Z,58.20
2023-02-15T13:23:52.690Z,58.70
2023-02-15T13:25:01.553Z,59.30
2023-02-15T13:26:10.933Z,59.60
2023-02-15T13:27:17.854Z,59.90
2023-02-15T13:28:27.026Z,59.80
2023-02-15T13:29:32.083Z,60.20
2023-02-15T13:30:40.800Z,60.40
2023-02-15T13:31:45.519Z,60.10
2023-02-15T13:32:53.780Z,60.10
2023-02-15T13:34:04.058Z,60.30
2023-02-15T13:35:15.031Z,60.20
2023-02-15T13:36:30.097Z,60.30
2023-02-15T13:38:01.101Z,60.30
2023-02-15T13:39:19.140Z,60.60
2023-02-15T13:40:30.159Z,60.60
2023-02-15T13:41:44.838Z,60.60
2023-02-15T13:42:55.316Z,60.70
2023-02-15T13:44:11.571Z,61.00
2023-02-15T13:45:38.829Z,61.20
2023-02-15T13:47:03.271Z,61.00
2023-02-15T13:48:22.912Z,61.10
2023-02-15T13:49:43.864Z,61.10
2023-02-15T13:51:06.111Z,61.20
2023-02-15T13:52:22.473Z,61.30
2023-02-15T13:53:57.063Z,61.20
2023-02-15T13:55:24.655Z,61.40
2023-02-15T13:56:45.729Z,61.60
2023-02-15T13:58:21.392Z,61.30
2023-02-15T13:59:46.688Z,61.30
2023-02-15T14:00:59.027Z,61.70
2023-02-15T14:02:33.091Z,61.60
2023-02-15T14:04:11.411Z,61.80
2023-02-15T14:05:40.982Z,61.90
2023-02-15T14:07:02.487Z,61.80
2023-02-15T14:08:20.927Z,61.80
2023-02-15T14:09:42.691Z,61.90
2023-02-15T14:10:54.541Z,61.90
2023-02-15T14:12:23.657Z,62.00
2023-02-15T14:14:26.464Z,62.10
2023-02-15T14:15:44.091Z,62.50
2023-02-15T14:17:07.263Z,63.00
2023-02-15T14:18:26.743Z,63.00
2023-02-15T14:19:42.370Z,63.40
2023-02-15T14:21:06.198Z,63.60
2023-02-15T14:22:22.831Z,63.70
2023-02-15T14:23:45.930Z,63.50
2023-02-15T14:25:02.128Z,63.50
2023-02-15T14:26:11.229Z,63.50
2023-02-15T14:27:29.016Z,63.30
2023-02-15T14:28:42.650Z,63.10
2023-02-15T14:29:54.862Z,63.60
2023-02-15T14:31:00.604Z,63.50
2023-02-15T14:32:13.636Z,63.50
2023-02-15T14:33:35.962Z,63.70
2023-02-15T14:34:49.205Z,63.60
2023-02-15T14:35:53.176Z,63.60
2023-02-15T14:36:58.961Z,64.10
2023-02-15T14:38:13.726Z,64.20
2023-02-15T14:39:50.339Z,64.20
2023-02-15T14:41:05.715Z,64.30
2023-02-15T14:42:16.733Z,64.60
2023-02-15T14:43:36.154Z,64.70
2023-02-15T14:44:45.572Z,64.90
2023-02-15T14:45:54.353Z,65.10
2023-02-15T14:47:05.334Z,65.00
2023-02-15T14:48:16.986Z,65.20
2023-02-15T14:49:25.348Z,64.70
2023-02-15T14:50:45.498Z,64.50
2023-02-15T14:52:02.321Z,64.50
2023-02-15T14:53:43.885Z,64.30
2023-02-15T14:55:02.107Z,64.40
2023-02-15T14:56:27.656Z,64.50
2023-02-15T14:57:37.343Z,64.50
2023-02-15T14:59:13.458Z,64.90
2023-02-15T15:00:40.970Z,64.40